createdAt,value
2018-09-20T00:02:10.674Z,22.10
2018-09-20T00:07:13.779Z,22.10
2018-09-20T00:12:16.903Z,22.00
2018-09-20T00:17:19.990Z,22.00
2018-09-20T00:22:23.074Z,22.00
2018-09-20T00:27:26.179Z,21.90
2018-09-20T00:32:29.306Z,21.90
2018-09-20T00:37:32.390Z,21.80
2018-09-20T00:42:35.487Z,21.80
2018-09-20T00:47:38.595Z,21.80
2018-09-20T00:52:41.811Z,21.80
2018-09-20T00:57:44.914Z,21.70
2018-09-20T01:02:48.064Z,21.70
2018-09-20T01:07:51.163Z,21.60
2018-09-20T01:12:54.327Z,21.60
2018-09-20T01:17:57.443Z,21.50
2018-09-20T01:23:00.562Z,21.50
2018-09-20T01:28:03.676Z,21.50
2018-09-20T01:33:06.803Z,21.40
2018-09-20T01:38:09.909Z,21.40
2018-09-20T01:43:13.014Z,21.40
2018-09-20T01:48:16.122Z,21.30
2018-09-20T01:53:19.280Z,21.30
2018-09-20T01:58:22.443Z,21.20
2018-09-20T02:03:25.554Z,21.20
2018-09-20T02:08:28.650Z,21.20
2018-09-20T02:13:31.858Z,21.20
2018-09-20T02:18:34.975Z,21.10
2018-09-20T02:23:38.108Z,21.10
2018-09-20T02:28:41.394Z,21.10
2018-09-20T02:33:44.500Z,21.10
2018-09-20T02:38:47.611Z,21.00
2018-09-20T02:43:50.727Z,21.00
2018-09-20T02:48:53.815Z,20.90
2018-09-20T02:53:56.934Z,20.90
2018-09-20T02:59:00.098Z,20.90
2018-09-20T03:04:03.175Z,20.90
2018-09-20T03:09:08.088Z,20.90
2018-09-20T03:14:11.199Z,20.90
2018-09-20T03:19:14.299Z,20.90
2018-09-20T03:24:17.679Z,20.80
2018-09-20T03:29:20.763Z,20.80
2018-09-20T03:34:23.872Z,20.80
2018-09-20T03:39:58.673Z,20.70
2018-09-20T03:45:01.896Z,20.80
2018-09-20T03:50:05.166Z,20.70
2018-09-20T03:55:08.253Z,20.70
2018-09-20T04:00:11.381Z,20.70
2018-09-20T04:05:14.467Z,20.70
2018-09-20T04:10:17.603Z,20.60
2018-09-20T04:15:20.680Z,20.60
2018-09-20T04:20:23.791Z,20.60
2018-09-20T04:25:26.971Z,20.60
2018-09-20T04:30:30.126Z,20.60
2018-09-20T04:35:33.260Z,20.50
2018-09-20T04:40:36.379Z,20.50
2018-09-20T04:45:39.575Z,20.50
2018-09-20T04:50:42.744Z,20.50
2018-09-20T04:55:45.883Z,20.50
2018-09-20T05:00:48.975Z,20.50
2018-09-20T05:05:52.188Z,20.50
2018-09-20T05:10:55.312Z,20.50
2018-09-20T05:15:58.446Z,20.50
2018-09-20T05:21:01.760Z,20.50
2018-09-20T05:26:04.855Z,20.50
2018-09-20T05:31:07.963Z,20.40
2018-09-20T05:36:11.083Z,20.50
2018-09-20T05:41:14.183Z,20.50
2018-09-20T05:46:17.471Z,20.40
2018-09-20T05:51:20.562Z,20.40
2018-09-20T05:56:23.679Z,20.50
2018-09-20T06:01:26.811Z,20.50
2018-09-20T06:06:29.929Z,20.50
2018-09-20T06:11:33.029Z,20.50
2018-09-20T06:16:36.147Z,20.50
2018-09-20T06:21:39.287Z,20.50
2018-09-20T06:26:42.447Z,20.60
2018-09-20T06:31:45.622Z,20.70
2018-09-20T06:36:48.881Z,20.70
2018-09-20T06:41:52.204Z,20.80
2018-09-20T06:46:55.339Z,20.80
2018-09-20T06:51:58.468Z,20.90
2018-09-20T06:57:01.558Z,20.90
2018-09-20T07:02:04.671Z,20.90
2018-09-20T07:07:07.804Z,21.00
2018-09-20T07:12:10.928Z,21.00
2018-09-20T07:17:14.036Z,21.10
2018-09-20T07:22:17.162Z,21.20
2018-09-20T07:27:20.271Z,21.30
2018-09-20T07:32:23.375Z,21.40
2018-09-20T07:37:26.504Z,21.50
2018-09-20T07:42:29.625Z,21.70
2018-09-20T07:47:32.736Z,21.80
2018-09-20T07:52:35.899Z,21.90
2018-09-20T07:57:39.015Z,22.10
2018-09-20T08:02:42.257Z,22.20
2018-09-20T08:07:45.375Z,22.40
2018-09-20T08:12:48.518Z,22.50
2018-09-20T08:17:51.602Z,22.70
2018-09-20T08:22:54.719Z,22.80
2018-09-20T08:27:57.873Z,22.90
2018-09-20T08:33:00.947Z,23.10
2018-09-20T08:38:04.052Z,23.20
2018-09-20T08:43:07.169Z,23.30
2018-09-20T08:48:10.267Z,23.40
2018-09-20T08:53:13.359Z,23.50
2018-09-20T08:58:16.528Z,23.70
2018-09-20T09:03:19.639Z,23.80
2018-09-20T09:08:22.751Z,23.90
2018-09-20T09:13:25.882Z,24.00
2018-09-20T09:18:28.968Z,24.10
2018-09-20T09:23:32.068Z,24.10
2018-09-20T09:28:35.422Z,24.20
2018-09-20T09:33:38.532Z,24.30
2018-09-20T09:38:41.647Z,24.40
2018-09-20T09:43:44.804Z,24.60
2018-09-20T09:48:47.915Z,24.70
2018-09-20T09:53:51.030Z,24.90
2018-09-20T09:58:54.142Z,25.00
2018-09-20T10:03:57.285Z,25.20
2018-09-20T10:09:00.428Z,25.30
2018-09-20T10:14:03.555Z,25.40
2018-09-20T10:19:06.679Z,25.70
2018-09-20T10:24:09.872Z,25.90
2018-09-20T10:29:12.981Z,26.00
2018-09-20T10:34:16.070Z,26.20
2018-09-20T10:39:19.183Z,26.40
2018-09-20T10:44:22.299Z,26.60
2018-09-20T10:49:25.424Z,26.80
2018-09-20T10:54:28.606Z,26.90
2018-09-20T10:59:31.623Z,27.10
2018-09-20T11:04:34.727Z,27.20
2018-09-20T11:09:37.831Z,27.40
2018-09-20T11:14:40.940Z,27.50
2018-09-20T11:19:44.132Z,27.60
2018-09-20T11:24:47.282Z,27.70
2018-09-20T11:29:50.416Z,27.80
2018-09-20T11:34:53.523Z,27.90
2018-09-20T11:39:56.640Z,28.00
2018-09-20T11:44:59.742Z,28.10
2018-09-20T11:50:02.882Z,28.10
2018-09-20T11:55:06.011Z,28.20
2018-09-20T12:00:09.124Z,28.20
2018-09-20T12:05:12.259Z,28.30
2018-09-20T12:10:15.579Z,28.30
2018-09-20T12:15:18.720Z,28.40
2018-09-20T12:20:21.803Z,28.40
2018-09-20T12:25:24.914Z,28.40
2018-09-20T12:30:28.267Z,28.40
2018-09-20T12:35:31.432Z,28.40
2018-09-20T12:40:34.555Z,28.40
2018-09-20T12:45:37.769Z,28.40
2018-09-20T12:50:40.896Z,28.40
2018-09-20T12:55:43.996Z,28.40
2018-09-20T13:00:47.200Z,28.40
2018-09-20T13:05:50.339Z,28.50
2018-09-20T13:10:53.483Z,28.50
2018-09-20T13:15:56.589Z,28.60
2018-09-20T13:20:59.705Z,28.60
2018-09-20T13:26:02.813Z,28.70
2018-09-20T13:31:05.956Z,28.70
2018-09-20T13:36:09.053Z,28.70
2018-09-20T13:41:12.149Z,28.70
2018-09-20T13:46:15.252Z,28.70
2018-09-20T13:51:18.336Z,28.80
2018-09-20T13:56:21.473Z,28.80
2018-09-20T14:01:24.528Z,28.80
2018-09-20T14:06:27.673Z,28.80
2018-09-20T14:11:30.789Z,28.90
2018-09-20T14:16:33.932Z,28.90
2018-09-20T14:21:37.146Z,28.90
2018-09-20T14:26:40.254Z,28.90
2018-09-20T14:31:43.340Z,28.90
2018-09-20T14:36:46.530Z,28.90
2018-09-20T14:41:49.577Z,28.90
2018-09-20T14:46:52.684Z,28.80
2018-09-20T14:51:55.800Z,28.80
2018-09-20T14:56:59.095Z,28.80
2018-09-20T15:02:02.215Z,28.80
2018-09-20T15:07:05.356Z,28.80
2018-09-20T15:12:08.468Z,28.80
2018-09-20T15:17:11.571Z,28.80
2018-09-20T15:22:14.677Z,28.80
2018-09-20T15:27:17.867Z,28.80
2018-09-20T15:32:21.008Z,28.80
2018-09-20T15:37:24.068Z,28.80
2018-09-20T15:42:27.168Z,28.80
2018-09-20T15:47:30.273Z,28.70
2018-09-20T15:52:33.356Z,28.70
2018-09-20T15:57:36.468Z,28.60
2018-09-20T16:02:39.588Z,28.60
2018-09-20T16:07:42.728Z,28.50
2018-09-20T16:12:45.842Z,28.40
2018-09-20T16:17:48.943Z,28.30
2018-09-20T16:22:52.087Z,28.20
2018-09-20T16:27:58.941Z,28.10
2018-09-20T16:33:17.020Z,28.00
2018-09-20T16:38:58.244Z,27.90
2018-09-20T16:44:01.335Z,27.80
2018-09-20T16:49:04.466Z,27.70
2018-09-20T16:54:07.595Z,27.60
2018-09-20T16:59:10.708Z,27.50
2018-09-20T17:04:13.820Z,27.40
2018-09-20T17:09:16.920Z,27.30
2018-09-20T17:14:20.073Z,27.10
2018-09-20T17:19:23.162Z,27.00
2018-09-20T17:24:26.244Z,26.90
2018-09-20T17:29:29.351Z,26.80
2018-09-20T17:34:32.639Z,26.70
2018-09-20T17:39:36.940Z,26.50
2018-09-20T17:44:40.056Z,26.40
2018-09-20T17:49:43.158Z,26.30
2018-09-20T17:54:46.797Z,26.20
2018-09-20T17:59:49.942Z,26.00
2018-09-20T18:04:53.052Z,25.90
2018-09-20T18:09:56.204Z,25.80
2018-09-20T18:14:59.330Z,25.60
2018-09-20T18:20:02.536Z,25.50
2018-09-20T18:25:05.756Z,25.40
2018-09-20T18:30:08.899Z,25.30
2018-09-20T18:35:12.036Z,25.20
2018-09-20T18:40:15.156Z,25.00
2018-09-20T18:45:18.247Z,25.00
2018-09-20T18:50:21.359Z,24.80
2018-09-20T18:55:24.504Z,24.80
2018-09-20T19:00:27.580Z,24.60
2018-09-20T19:05:30.745Z,24.60
2018-09-20T19:10:33.872Z,24.50
2018-09-20T19:15:37.099Z,24.40
2018-09-20T19:20:40.455Z,24.30
2018-09-20T19:25:43.576Z,24.20
2018-09-20T19:30:46.684Z,24.10
2018-09-20T19:35:49.789Z,24.10
2018-09-20T19:40:52.905Z,24.00
2018-09-20T19:45:56.063Z,23.90
2018-09-20T19:50:59.163Z,23.80
2018-09-20T19:56:02.367Z,23.80
2018-09-20T20:01:05.603Z,23.80
2018-09-20T20:06:08.738Z,23.70
2018-09-20T20:11:11.837Z,23.60
2018-09-20T20:16:14.915Z,23.60
2018-09-20T20:21:18.107Z,23.60
2018-09-20T20:26:21.295Z,23.50
2018-09-20T20:31:24.514Z,23.40
2018-09-20T20:36:27.866Z,23.40
2018-09-20T20:41:30.996Z,23.40
2018-09-20T20:46:34.096Z,23.30
2018-09-20T20:51:37.205Z,23.30
2018-09-20T20:56:40.319Z,23.20
2018-09-20T21:01:43.481Z,23.20
2018-09-20T21:06:46.610Z,23.20
2018-09-20T21:11:49.715Z,23.10
2018-09-20T21:16:52.911Z,23.10
2018-09-20T21:21:56.091Z,23.10
2018-09-20T21:26:59.349Z,23.00
2018-09-20T21:32:02.524Z,22.90
2018-09-20T21:37:05.726Z,22.90
2018-09-20T21:42:08.911Z,22.80
2018-09-20T21:47:12.043Z,22.80
2018-09-20T21:52:15.231Z,22.70
2018-09-20T21:57:18.320Z,22.70
2018-09-20T22:02:26.975Z,22.60
2018-09-20T22:07:30.075Z,22.60
2018-09-20T22:12:33.164Z,22.50
2018-09-20T22:17:36.319Z,22.50
2018-09-20T22:22:39.426Z,22.50
2018-09-20T22:27:42.582Z,22.40
2018-09-20T22:32:45.886Z,22.40
2018-09-20T22:37:48.988Z,22.40
2018-09-20T22:42:52.091Z,22.30
2018-09-20T22:47:55.203Z,22.30
2018-09-20T22:52:58.311Z,22.30
2018-09-20T22:58:01.407Z,22.20
2018-09-20T23:03:04.507Z,22.20
2018-09-20T23:08:07.601Z,22.20
2018-09-20T23:13:10.696Z,22.10
2018-09-20T23:18:13.808Z,22.10
2018-09-20T23:23:16.925Z,22.00
2018-09-20T23:28:20.003Z,22.00
2018-09-20T23:33:23.078Z,22.00
2018-09-20T23:38:26.206Z,21.90
2018-09-20T23:43:29.307Z,21.90
2018-09-20T23:48:32.408Z,21.90
2018-09-20T23:53:35.547Z,21.80
2018-09-20T23:58:38.669Z,21.70
